sensor_id;sensor_type;location;lat;lon;timestamp;temperature;humidity
31975;DHT22;18500;43.618;1.474;2024-02-14T08:22:02;5.30;1.00
31975;DHT22;18500;43.618;1.474;2024-02-14T08:24:28;5.60;1.00
31975;DHT22;18500;43.618;1.474;2024-02-14T08:26:54;5.70;1.00
31975;DHT22;18500;43.618;1.474;2024-02-14T08:29:20;5.80;1.00
31975;DHT22;18500;43.618;1.474;2024-02-14T08:31:46;5.80;1.00
31975;DHT22;18500;43.618;1.474;2024-02-14T08:34:12;6.00;1.00
31975;DHT22;18500;43.618;1.474;2024-02-14T08:36:38;6.10;1.00
31975;DHT22;18500;43.618;1.474;2024-02-14T08:39:09;6.10;1.00
31975;DHT22;18500;43.618;1.474;2024-02-14T08:41:36;6.30;1.00
31975;DHT22;18500;43.618;1.474;2024-02-14T08:44:02;6.40;1.00
31975;DHT22;18500;43.618;1.474;2024-02-14T08:46:30;6.50;1.00
31975;DHT22;18500;43.618;1.474;2024-02-14T08:48:56;6.60;1.00
31975;DHT22;18500;43.618;1.474;2024-02-14T08:51:21;6.70;1.00
31975;DHT22;18500;43.618;1.474;2024-02-14T08:53:49;6.80;1.00
31975;DHT22;18500;43.618;1.474;2024-02-14T08:56:20;7.00;1.00
31975;DHT22;18500;43.618;1.474;2024-02-14T08:58:46;7.00;1.00
31975;DHT22;18500;43.618;1.474;2024-02-14T09:01:12;7.20;1.00
31975;DHT22;18500;43.618;1.474;2024-02-14T09:03:38;7.20;1.00
31975;DHT22;18500;43.618;1.474;2024-02-14T09:06:04;7.30;1.00
31975;DHT22;18500;43.618;1.474;2024-02-14T09:08:29;7.30;1.00
31975;DHT22;18500;43.618;1.474;2024-02-14T09:10:56;7.30;1.00
31975;DHT22;18500;43.618;1.474;2024-02-14T09:13:24;7.40;1.00
31975;DHT22;18500;43.618;1.474;2024-02-14T09:15:50;7.50;1.00
31975;DHT22;18500;43.618;1.474;2024-02-14T09:18:18;7.70;1.00
31975;DHT22;18500;43.618;1.474;2024-02-14T09:20:44;7.80;1.00
31975;DHT22;18500;43.618;1.474;2024-02-14T09:23:12;7.90;1.00
31975;DHT22;18500;43.618;1.474;2024-02-14T09:25:40;8.00;1.00
31975;DHT22;18500;43.618;1.474;2024-02-14T09:28:05;8.10;1.00
31975;DHT22;18500;43.618;1.474;2024-02-14T09:30:32;8.20;1.00
31975;DHT22;18500;43.618;1.474;2024-02-14T09:32:58;8.40;1.00
31975;DHT22;18500;43.618;1.474;2024-02-14T09:35:24;8.40;1.00
31975;DHT22;18500;43.618;1.474;2024-02-14T09:37:51;8.40;1.00
31975;DHT22;18500;43.618;1.474;2024-02-14T09:40:17;8.40;1.00
31975;DHT22;18500;43.618;1.474;2024-02-14T09:42:54;8.60;1.00
31975;DHT22;18500;43.618;1.474;2024-02-14T09:45:23;8.60;1.00
31975;DHT22;18500;43.618;1.474;2024-02-14T09:47:50;8.70;1.00
31975;DHT22;18500;43.618;1.474;2024-02-14T09:50:17;8.90;1.00
31975;DHT22;18500;43.618;1.474;2024-02-14T09:52:49;8.90;1.00
31975;DHT22;18500;43.618;1.474;2024-02-14T09:55:15;9.10;1.00
31975;DHT22;18500;43.618;1.474;2024-02-14T09:57:43;9.20;1.00
31975;DHT22;18500;43.618;1.474;2024-02-14T10:00:12;9.40;1.00
31975;DHT22;18500;43.618;1.474;2024-02-14T10:02:41;9.40;1.00
31975;DHT22;18500;43.618;1.474;2024-02-14T10:05:07;9.50;1.00
31975;DHT22;18500;43.618;1.474;2024-02-14T10:07:43;9.60;1.00
31975;DHT22;18500;43.618;1.474;2024-02-14T10:10:09;9.80;1.00
31975;DHT22;18500;43.618;1.474;2024-02-14T10:12:35;9.90;1.00
31975;DHT22;18500;43.618;1.474;2024-02-14T10:15:01;9.90;1.00
31975;DHT22;18500;43.618;1.474;2024-02-14T10:17:27;10.00;1.00
31975;DHT22;18500;43.618;1.474;2024-02-14T10:19:57;10.10;1.00
31975;DHT22;18500;43.618;1.474;2024-02-14T10:22:24;10.10;1.00
31975;DHT22;18500;43.618;1.474;2024-02-14T10:24:51;10.20;1.00
31975;DHT22;18500;43.618;1.474;2024-02-14T10:27:17;10.30;1.00
31975;DHT22;18500;43.618;1.474;2024-02-14T10:29:42;10.40;1.00
31975;DHT22;18500;43.618;1.474;2024-02-14T10:32:09;10.50;1.00
31975;DHT22;18500;43.618;1.474;2024-02-14T10:34:37;10.60;1.00
31975;DHT22;18500;43.618;1.474;2024-02-14T10:37:03;10.60;1.00
31975;DHT22;18500;43.618;1.474;2024-02-14T10:39:32;10.80;1.00
31975;DHT22;18500;43.618;1.474;2024-02-14T10:42:01;11.20;1.00
31975;DHT22;18500;43.618;1.474;2024-02-14T10:44:27;11.10;1.00
31975;DHT22;18500;43.618;1.474;2024-02-14T10:46:55;11.20;1.00
31975;DHT22;18500;43.618;1.474;2024-02-14T10:49:26;11.20;1.00
31975;DHT22;18500;43.618;1.474;2024-02-14T10:51:54;11.40;1.00
31975;DHT22;18500;43.618;1.474;2024-02-14T10:54:21;11.40;1.00
31975;DHT22;18500;43.618;1.474;2024-02-14T10:56:49;11.50;1.00
31975;DHT22;18500;43.618;1.474;2024-02-14T10:59:20;11.60;1.00
31975;DHT22;18500;43.618;1.474;2024-02-14T11:01:47;11.90;1.00
31975;DHT22;18500;43.618;1.474;2024-02-14T11:04:15;11.80;1.00
31975;DHT22;18500;43.618;1.474;2024-02-14T11:06:48;11.60;1.00
31975;DHT22;18500;43.618;1.474;2024-02-14T11:09:14;11.60;1.00
31975;DHT22;18500;43.618;1.474;2024-02-14T11:11:42;11.70;1.00
31975;DHT22;18500;43.618;1.474;2024-02-14T11:14:09;11.80;1.00
31975;DHT22;18500;43.618;1.474;2024-02-14T11:16:37;11.70;1.00
31975;DHT22;18500;43.618;1.474;2024-02-14T11:19:10;11.70;1.00
31975;DHT22;18500;43.618;1.474;2024-02-14T11:21:43;11.80;1.00
31975;DHT22;18500;43.618;1.474;2024-02-14T11:24:10;11.90;1.00
31975;DHT22;18500;43.618;1.474;2024-02-14T11:29:16;11.90;1.00
31975;DHT22;18500;43.618;1.474;2024-02-14T11:31:42;12.20;1.00
31975;DHT22;18500;43.618;1.474;2024-02-14T11:34:11;12.10;1.00
31975;DHT22;18500;43.618;1.474;2024-02-14T11:36:37;12.40;1.00
31975;DHT22;18500;43.618;1.474;2024-02-14T11:39:03;12.60;1.00
31975;DHT22;18500;43.618;1.474;2024-02-14T11:41:32;12.70;1.00
31975;DHT22;18500;43.618;1.474;2024-02-14T11:44:04;12.80;1.00
31975;DHT22;18500;43.618;1.474;2024-02-14T11:46:33;12.80;1.00
31975;DHT22;18500;43.618;1.474;2024-02-14T11:49:00;13.20;1.00
31975;DHT22;18500;43.618;1.474;2024-02-14T11:51:32;13.50;1.00
31975;DHT22;18500;43.618;1.474;2024-02-14T11:53:59;13.50;1.00
31975;DHT22;18500;43.618;1.474;2024-02-14T11:56:34;13.40;1.00
31975;DHT22;18500;43.618;1.474;2024-02-14T11:59:07;13.50;1.00
31975;DHT22;18500;43.618;1.474;2024-02-14T12:01:38;13.70;1.00
31975;DHT22;18500;43.618;1.474;2024-02-14T12:04:08;13.90;1.00
31975;DHT22;18500;43.618;1.474;2024-02-14T12:06:35;13.90;1.00
31975;DHT22;18500;43.618;1.474;2024-02-14T12:09:05;14.10;1.00
31975;DHT22;18500;43.618;1.474;2024-02-14T12:11:31;13.90;1.00
31975;DHT22;18500;43.618;1.474;2024-02-14T12:14:07;14.00;1.00
31975;DHT22;18500;43.618;1.474;2024-02-14T12:16:36;14.10;1.00
31975;DHT22;18500;43.618;1.474;2024-02-14T12:19:23;14.10;1.00
31975;DHT22;18500;43.618;1.474;2024-02-14T12:21:49;14.20;1.00
31975;DHT22;18500;43.618;1.474;2024-02-14T12:24:14;14.20;1.00
31975;DHT22;18500;43.618;1.474;2024-02-14T12:26:41;14.40;1.00
31975;DHT22;18500;43.618;1.474;2024-02-14T12:29:08;14.50;1.00
31975;DHT22;18500;43.618;1.474;2024-02-14T12:31:34;14.80;1.00
31975;DHT22;18500;43.618;1.474;2024-02-14T12:34:02;14.90;1.00
31975;DHT22;18500;43.618;1.474;2024-02-14T12:36:33;14.60;1.00
31975;DHT22;18500;43.618;1.474;2024-02-14T12:38:59;14.40;1.00
31975;DHT22;18500;43.618;1.474;2024-02-14T12:41:28;14.40;1.00
31975;DHT22;18500;43.618;1.474;2024-02-14T12:43:55;14.40;1.00
31975;DHT22;18500;43.618;1.474;2024-02-14T12:46:21;14.60;1.00
31975;DHT22;18500;43.618;1.474;2024-02-14T12:48:47;15.10;1.00
31975;DHT22;18500;43.618;1.474;2024-02-14T12:51:14;15.30;1.00
31975;DHT22;18500;43.618;1.474;2024-02-14T12:53:40;17.40;1.00
31975;DHT22;18500;43.618;1.474;2024-02-14T12:56:07;19.90;1.00
31975;DHT22;18500;43.618;1.474;2024-02-14T12:58:33;21.20;1.00
31975;DHT22;18500;43.618;1.474;2024-02-14T13:00:59;21.80;1.00
31975;DHT22;18500;43.618;1.474;2024-02-14T13:03:26;22.20;1.00
31975;DHT22;18500;43.618;1.474;2024-02-14T13:05:53;22.60;1.00
31975;DHT22;18500;43.618;1.474;2024-02-14T13:08:20;23.00;1.00
31975;DHT22;18500;43.618;1.474;2024-02-14T13:10:46;22.50;1.00
31975;DHT22;18500;43.618;1.474;2024-02-14T13:13:12;23.50;1.00
31975;DHT22;18500;43.618;1.474;2024-02-14T13:15:39;24.20;1.00
31975;DHT22;18500;43.618;1.474;2024-02-14T13:18:06;24.60;1.00
31975;DHT22;18500;43.618;1.474;2024-02-14T13:20:32;24.10;1.00
31975;DHT22;18500;43.618;1.474;2024-02-14T13:22:57;23.00;1.00
31975;DHT22;18500;43.618;1.474;2024-02-14T13:25:23;21.00;1.00
31975;DHT22;18500;43.618;1.474;2024-02-14T13:27:49;19.40;1.00
31975;DHT22;18500;43.618;1.474;2024-02-14T13:30:15;18.70;1.00
31975;DHT22;18500;43.618;1.474;2024-02-14T13:32:41;18.40;1.00
31975;DHT22;18500;43.618;1.474;2024-02-14T13:35:07;18.10;1.00
31975;DHT22;18500;43.618;1.474;2024-02-14T13:37:33;18.00;1.00
31975;DHT22;18500;43.618;1.474;2024-02-14T13:39:59;17.90;1.00
31975;DHT22;18500;43.618;1.474;2024-02-14T13:42:26;18.10;1.00
31975;DHT22;18500;43.618;1.474;2024-02-14T13:44:52;18.10;1.00
31975;DHT22;18500;43.618;1.474;2024-02-14T13:47:19;18.00;1.00
31975;DHT22;18500;43.618;1.474;2024-02-14T13:49:46;18.00;1.00
31975;DHT22;18500;43.618;1.474;2024-02-14T13:52:11;18.00;1.00
31975;DHT22;18500;43.618;1.474;2024-02-14T13:54:37;18.00;1.00
31975;DHT22;18500;43.618;1.474;2024-02-14T13:57:03;17.80;1.00
31975;DHT22;18500;43.618;1.474;2024-02-14T13:59:29;18.00;1.00
31975;DHT22;18500;43.618;1.474;2024-02-14T14:01:55;18.10;1.00
31975;DHT22;18500;43.618;1.474;2024-02-14T14:04:21;18.10;1.00
31975;DHT22;18500;43.618;1.474;2024-02-14T14:06:47;18.10;1.00
31975;DHT22;18500;43.618;1.474;2024-02-14T14:09:13;18.30;1.00
31975;DHT22;18500;43.618;1.474;2024-02-14T14:11:39;18.30;1.00
31975;DHT22;18500;43.618;1.474;2024-02-14T14:14:05;18.30;1.00
31975;DHT22;18500;43.618;1.474;2024-02-14T14:16:31;18.20;1.00
31975;DHT22;18500;43.618;1.474;2024-02-14T14:19:00;18.20;1.00
31975;DHT22;18500;43.618;1.474;2024-02-14T14:21:26;18.20;1.00
31975;DHT22;18500;43.618;1.474;2024-02-14T14:23:52;18.30;1.00
31975;DHT22;18500;43.618;1.474;2024-02-14T14:26:18;18.20;1.00
31975;DHT22;18500;43.618;1.474;2024-02-14T14:28:44;18.30;1.00
31975;DHT22;18500;43.618;1.474;2024-02-14T14:31:09;18.40;1.00
31975;DHT22;18500;43.618;1.474;2024-02-14T14:33:36;18.50;1.00
31975;DHT22;18500;43.618;1.474;2024-02-14T14:36:04;18.70;1.00
31975;DHT22;18500;43.618;1.474;2024-02-14T14:38:30;18.60;1.00
31975;DHT22;18500;43.618;1.474;2024-02-14T14:40:56;18.60;1.00
31975;DHT22;18500;43.618;1.474;2024-02-14T14:43:22;18.60;1.00
31975;DHT22;18500;43.618;1.474;2024-02-14T14:45:47;18.40;1.00
31975;DHT22;18500;43.618;1.474;2024-02-14T14:48:15;18.30;1.00
31975;DHT22;18500;43.618;1.474;2024-02-14T14:50:40;18.30;1.00
31975;DHT22;18500;43.618;1.474;2024-02-14T14:53:07;18.50;1.00
31975;DHT22;18500;43.618;1.474;2024-02-14T14:55:52;18.30;1.00
31975;DHT22;18500;43.618;1.474;2024-02-14T14:58:18;18.40;1.00
31975;DHT22;18500;43.618;1.474;2024-02-14T15:00:44;18.30;1.00
31975;DHT22;18500;43.618;1.474;2024-02-14T15:03:10;18.20;1.00
31975;DHT22;18500;43.618;1.474;2024-02-14T15:05:39;18.10;1.00
31975;DHT22;18500;43.618;1.474;2024-02-14T15:08:06;18.30;1.00
31975;DHT22;18500;43.618;1.474;2024-02-14T15:10:33;18.40;1.00
31975;DHT22;18500;43.618;1.474;2024-02-14T15:13:00;18.30;1.00
31975;DHT22;18500;43.618;1.474;2024-02-14T15:15:25;18.10;1.00
31975;DHT22;18500;43.618;1.474;2024-02-14T15:17:51;18.10;1.00
31975;DHT22;18500;43.618;1.474;2024-02-14T15:20:17;18.10;1.00
31975;DHT22;18500;43.618;1.474;2024-02-14T15:22:43;18.00;1.00
31975;DHT22;18500;43.618;1.474;2024-02-14T15:25:08;17.90;1.00
31975;DHT22;18500;43.618;1.474;2024-02-14T15:27:34;17.90;1.00
31975;DHT22;18500;43.618;1.474;2024-02-14T15:30:06;17.70;1.00
31975;DHT22;18500;43.618;1.474;2024-02-14T15:32:51;17.80;1.00
31975;DHT22;18500;43.618;1.474;2024-02-14T15:35:56;17.80;1.00
31975;DHT22;18500;43.618;1.474;2024-02-14T15:38:23;17.80;1.00
31975;DHT22;18500;43.618;1.474;2024-02-14T15:40:50;17.70;1.00
31975;DHT22;18500;43.618;1.474;2024-02-14T15:43:18;17.70;1.00
31975;DHT22;18500;43.618;1.474;2024-02-14T15:45:44;17.60;1.00
31975;DHT22;18500;43.618;1.474;2024-02-14T15:48:10;17.40;1.00
31975;DHT22;18500;43.618;1.474;2024-02-14T15:50:36;17.30;1.00
31975;DHT22;18500;43.618;1.474;2024-02-14T15:53:02;17.10;1.00
31975;DHT22;18500;43.618;1.474;2024-02-14T15:55:28;17.10;1.00
31975;DHT22;18500;43.618;1.474;2024-02-14T15:57:55;17.00;1.00
31975;DHT22;18500;43.618;1.474;2024-02-14T16:00:22;16.90;1.00
31975;DHT22;18500;43.618;1.474;2024-02-14T16:02:52;16.90;1.00
31975;DHT22;18500;43.618;1.474;2024-02-14T16:05:19;16.90;1.00
31975;DHT22;18500;43.618;1.474;2024-02-14T16:07:44;16.90;1.00
31975;DHT22;18500;43.618;1.474;2024-02-14T16:10:10;16.80;1.00
31975;DHT22;18500;43.618;1.474;2024-02-14T16:12:36;16.70;1.00
31975;DHT22;18500;43.618;1.474;2024-02-14T16:15:02;16.70;1.00
31975;DHT22;18500;43.618;1.474;2024-02-14T16:17:29;16.70;1.00
31975;DHT22;18500;43.618;1.474;2024-02-14T16:19:54;16.60;1.00
31975;DHT22;18500;43.618;1.474;2024-02-14T16:22:20;16.60;1.00
31975;DHT22;18500;43.618;1.474;2024-02-14T16:24:46;16.50;1.00
31975;DHT22;18500;43.618;1.474;2024-02-14T16:27:14;16.50;1.00
31975;DHT22;18500;43.618;1.474;2024-02-14T16:29:41;16.40;1.00
31975;DHT22;18500;43.618;1.474;2024-02-14T16:32:07;16.30;1.00
31975;DHT22;18500;43.618;1.474;2024-02-14T16:34:35;16.10;1.00
31975;DHT22;18500;43.618;1.474;2024-02-14T16:37:02;16.00;1.00
31975;DHT22;18500;43.618;1.474;2024-02-14T16:39:28;16.00;1.00
31975;DHT22;18500;43.618;1.474;2024-02-14T16:41:54;16.00;1.00
31975;DHT22;18500;43.618;1.474;2024-02-14T16:44:19;16.00;1.00
31975;DHT22;18500;43.618;1.474;2024-02-14T16:46:46;16.00;1.00
31975;DHT22;18500;43.618;1.474;2024-02-14T16:49:12;16.00;1.00
31975;DHT22;18500;43.618;1.474;2024-02-14T16:51:38;16.00;1.00
31975;DHT22;18500;43.618;1.474;2024-02-14T16:54:03;15.80;1.00
31975;DHT22;18500;43.618;1.474;2024-02-14T16:56:29;15.80;1.00
31975;DHT22;18500;43.618;1.474;2024-02-14T16:58:57;15.70;1.00
31975;DHT22;18500;43.618;1.474;2024-02-14T17:01:23;15.60;1.00
31975;DHT22;18500;43.618;1.474;2024-02-14T17:03:51;15.60;1.00
31975;DHT22;18500;43.618;1.474;2024-02-14T17:06:17;15.60;1.00
31975;DHT22;18500;43.618;1.474;2024-02-14T17:08:43;15.50;1.00
31975;DHT22;18500;43.618;1.474;2024-02-14T17:11:15;15.40;1.00
31975;DHT22;18500;43.618;1.474;2024-02-14T17:13:44;15.30;1.00
31975;DHT22;18500;43.618;1.474;2024-02-14T17:16:10;15.10;1.00
31975;DHT22;18500;43.618;1.474;2024-02-14T17:18:36;14.90;1.00
31975;DHT22;18500;43.618;1.474;2024-02-14T17:21:03;14.60;1.00
31975;DHT22;18500;43.618;1.474;2024-02-14T17:23:29;14.40;1.00
31975;DHT22;18500;43.618;1.474;2024-02-14T17:25:55;14.20;1.00
31975;DHT22;18500;43.618;1.474;2024-02-14T17:28:21;14.00;1.00
31975;DHT22;18500;43.618;1.474;2024-02-14T17:30:48;13.90;1.00
31975;DHT22;18500;43.618;1.474;2024-02-14T17:33:16;13.70;1.00
31975;DHT22;18500;43.618;1.474;2024-02-14T17:35:42;13.60;1.00
31975;DHT22;18500;43.618;1.474;2024-02-14T17:38:08;13.40;1.00
31975;DHT22;18500;43.618;1.474;2024-02-14T17:40:33;13.30;1.00
31975;DHT22;18500;43.618;1.474;2024-02-14T17:42:59;13.20;1.00
31975;DHT22;18500;43.618;1.474;2024-02-14T17:45:25;13.10;1.00
31975;DHT22;18500;43.618;1.474;2024-02-14T17:47:51;13.10;1.00
31975;DHT22;18500;43.618;1.474;2024-02-14T17:50:16;13.00;1.00
31975;DHT22;18500;43.618;1.474;2024-02-14T17:52:42;12.90;1.00
31975;DHT22;18500;43.618;1.474;2024-02-14T17:55:11;12.90;1.00
31975;DHT22;18500;43.618;1.474;2024-02-14T17:57:37;12.80;1.00
31975;DHT22;18500;43.618;1.474;2024-02-14T18:00:03;12.60;1.00
31975;DHT22;18500;43.618;1.474;2024-02-14T18:02:30;12.60;1.00
31975;DHT22;18500;43.618;1.474;2024-02-14T18:04:56;12.50;1.00
31975;DHT22;18500;43.618;1.474;2024-02-14T18:07:22;12.60;1.00
31975;DHT22;18500;43.618;1.474;2024-02-14T18:09:47;12.60;1.00
31975;DHT22;18500;43.618;1.474;2024-02-14T18:12:13;12.70;1.00
31975;DHT22;18500;43.618;1.474;2024-02-14T18:14:39;12.60;1.00
31975;DHT22;18500;43.618;1.474;2024-02-14T18:17:05;12.40;1.00
31975;DHT22;18500;43.618;1.474;2024-02-14T18:19:31;12.30;1.00
31975;DHT22;18500;43.618;1.474;2024-02-14T18:21:56;12.20;1.00
31975;DHT22;18500;43.618;1.474;2024-02-14T18:24:22;12.00;1.00
31975;DHT22;18500;43.618;1.474;2024-02-14T18:26:48;11.90;1.00
31975;DHT22;18500;43.618;1.474;2024-02-14T18:29:14;11.90;1.00
31975;DHT22;18500;43.618;1.474;2024-02-14T18:31:40;11.80;1.00
31975;DHT22;18500;43.618;1.474;2024-02-14T18:34:06;11.70;1.00
31975;DHT22;18500;43.618;1.474;2024-02-14T18:36:33;11.60;1.00
31975;DHT22;18500;43.618;1.474;2024-02-14T18:38:59;11.70;1.00
31975;DHT22;18500;43.618;1.474;2024-02-14T18:41:26;11.90;1.00
31975;DHT22;18500;43.618;1.474;2024-02-14T18:43:52;12.10;1.00
31975;DHT22;18500;43.618;1.474;2024-02-14T18:46:20;12.20;1.00
31975;DHT22;18500;43.618;1.474;2024-02-14T18:48:47;12.20;1.00
31975;DHT22;18500;43.618;1.474;2024-02-14T18:51:13;12.20;1.00
31975;DHT22;18500;43.618;1.474;2024-02-14T18:53:39;12.30;1.00
31975;DHT22;18500;43.618;1.474;2024-02-14T18:56:05;12.30;1.00
31975;DHT22;18500;43.618;1.474;2024-02-14T18:58:30;12.20;1.00
31975;DHT22;18500;43.618;1.474;2024-02-14T19:00:56;12.20;1.00
31975;DHT22;18500;43.618;1.474;2024-02-14T19:03:21;12.10;1.00
31975;DHT22;18500;43.618;1.474;2024-02-14T19:05:47;12.10;1.00
31975;DHT22;18500;43.618;1.474;2024-02-14T19:08:13;12.00;1.00
31975;DHT22;18500;43.618;1.474;2024-02-14T19:10:38;12.00;1.00
31975;DHT22;18500;43.618;1.474;2024-02-14T19:13:04;12.00;1.00
31975;DHT22;18500;43.618;1.474;2024-02-14T19:15:32;11.90;1.00
31975;DHT22;18500;43.618;1.474;2024-02-14T19:17:58;12.00;1.00
31975;DHT22;18500;43.618;1.474;2024-02-14T19:20:24;12.10;1.00
31975;DHT22;18500;43.618;1.474;2024-02-14T19:22:49;12.10;1.00
31975;DHT22;18500;43.618;1.474;2024-02-14T19:25:15;12.10;1.00
31975;DHT22;18500;43.618;1.474;2024-02-14T19:27:41;12.00;1.00
31975;DHT22;18500;43.618;1.474;2024-02-14T19:30:07;11.90;1.00
31975;DHT22;18500;43.618;1.474;2024-02-14T19:32:33;12.00;1.00
31975;DHT22;18500;43.618;1.474;2024-02-14T19:35:04;12.00;1.00
31975;DHT22;18500;43.618;1.474;2024-02-14T19:37:30;12.00;1.00
31975;DHT22;18500;43.618;1.474;2024-02-14T19:39:57;11.90;1.00
31975;DHT22;18500;43.618;1.474;2024-02-14T19:42:23;11.90;1.00
31975;DHT22;18500;43.618;1.474;2024-02-14T19:44:50;11.80;1.00
31975;DHT22;18500;43.618;1.474;2024-02-14T19:47:15;11.70;1.00
31975;DHT22;18500;43.618;1.474;2024-02-14T19:49:41;11.60;1.00
31975;DHT22;18500;43.618;1.474;2024-02-14T19:52:07;11.60;1.00
31975;DHT22;18500;43.618;1.474;2024-02-14T19:54:35;11.60;1.00
31975;DHT22;18500;43.618;1.474;2024-02-14T19:57:01;11.30;1.00
31975;DHT22;18500;43.618;1.474;2024-02-14T19:59:27;11.20;1.00
31975;DHT22;18500;43.618;1.474;2024-02-14T20:01:53;11.10;1.00
31975;DHT22;18500;43.618;1.474;2024-02-14T20:04:19;11.00;1.00
31975;DHT22;18500;43.618;1.474;2024-02-14T20:06:45;10.90;1.00
31975;DHT22;18500;43.618;1.474;2024-02-14T20:09:11;10.90;1.00
31975;DHT22;18500;43.618;1.474;2024-02-14T20:11:37;10.90;1.00
31975;DHT22;18500;43.618;1.474;2024-02-14T20:14:03;10.90;1.00
31975;DHT22;18500;43.618;1.474;2024-02-14T20:16:30;10.70;1.00
31975;DHT22;18500;43.618;1.474;2024-02-14T20:18:58;10.40;1.00
31975;DHT22;18500;43.618;1.474;2024-02-14T20:21:24;10.40;1.00
31975;DHT22;18500;43.618;1.474;2024-02-14T20:23:51;10.30;1.00
31975;DHT22;18500;43.618;1.474;2024-02-14T20:26:16;10.30;1.00
31975;DHT22;18500;43.618;1.474;2024-02-14T20:28:42;10.40;1.00
31975;DHT22;18500;43.618;1.474;2024-02-14T20:31:09;10.50;1.00
31975;DHT22;18500;43.618;1.474;2024-02-14T20:33:35;10.50;1.00
31975;DHT22;18500;43.618;1.474;2024-02-14T20:36:01;10.60;1.00
31975;DHT22;18500;43.618;1.474;2024-02-14T20:38:26;10.60;1.00
31975;DHT22;18500;43.618;1.474;2024-02-14T20:40:53;10.70;1.00
31975;DHT22;18500;43.618;1.474;2024-02-14T20:43:19;10.60;1.00
31975;DHT22;18500;43.618;1.474;2024-02-14T20:45:47;10.70;1.00
31975;DHT22;18500;43.618;1.474;2024-02-14T20:48:13;10.70;1.00
31975;DHT22;18500;43.618;1.474;2024-02-14T20:50:40;10.80;1.00
31975;DHT22;18500;43.618;1.474;2024-02-14T20:53:07;10.80;1.00
31975;DHT22;18500;43.618;1.474;2024-02-14T20:55:32;10.80;1.00
31975;DHT22;18500;43.618;1.474;2024-02-14T20:58:00;10.80;1.00
31975;DHT22;18500;43.618;1.474;2024-02-14T21:00:26;10.80;1.00
31975;DHT22;18500;43.618;1.474;2024-02-14T21:02:51;10.70;1.00
31975;DHT22;18500;43.618;1.474;2024-02-14T21:05:17;10.50;1.00
31975;DHT22;18500;43.618;1.474;2024-02-14T21:07:43;10.40;1.00
31975;DHT22;18500;43.618;1.474;2024-02-14T21:10:09;10.30;1.00
31975;DHT22;18500;43.618;1.474;2024-02-14T21:12:36;10.50;1.00
31975;DHT22;18500;43.618;1.474;2024-02-14T21:15:02;10.60;1.00
31975;DHT22;18500;43.618;1.474;2024-02-14T21:17:28;10.90;1.00
31975;DHT22;18500;43.618;1.474;2024-02-14T21:19:54;10.80;1.00
31975;DHT22;18500;43.618;1.474;2024-02-14T21:22:22;10.90;1.00
31975;DHT22;18500;43.618;1.474;2024-02-14T21:24:47;10.90;1.00
31975;DHT22;18500;43.618;1.474;2024-02-14T21:27:14;10.80;1.00
31975;DHT22;18500;43.618;1.474;2024-02-14T21:29:40;10.80;1.00
31975;DHT22;18500;43.618;1.474;2024-02-14T21:32:08;10.70;1.00
31975;DHT22;18500;43.618;1.474;2024-02-14T21:34:34;10.70;1.00
31975;DHT22;18500;43.618;1.474;2024-02-14T21:36:59;10.70;1.00
31975;DHT22;18500;43.618;1.474;2024-02-14T21:39:27;10.70;1.00
31975;DHT22;18500;43.618;1.474;2024-02-14T21:41:52;10.60;1.00
31975;DHT22;18500;43.618;1.474;2024-02-14T21:44:18;10.50;1.00
31975;DHT22;18500;43.618;1.474;2024-02-14T21:46:45;10.60;1.00
31975;DHT22;18500;43.618;1.474;2024-02-14T21:49:11;10.70;1.00
31975;DHT22;18500;43.618;1.474;2024-02-14T21:51:39;10.70;1.00
31975;DHT22;18500;43.618;1.474;2024-02-14T21:54:05;10.60;1.00
31975;DHT22;18500;43.618;1.474;2024-02-14T21:56:31;10.70;1.00
31975;DHT22;18500;43.618;1.474;2024-02-14T21:58:57;10.70;1.00
